Time;durP1;ratioP1;P1;durP2;ratioP2;P2;SDS_P1;SDS_P2;PMS_P1;PMS_P2;Temp;Humidity;BMP_temperature;BMP_pressure;BME280_temperature;BME280_humidity;BME280_pressure;Samples;Min_cycle;Max_cycle;Signal;HPM_P1;HPM_P2
2022/07/26 00:01:54;;;;;;;16.30;5.95;;;;;;;23.03;60.00;99289.56;2794082;84;21010;-59
2022/07/26 00:05:57;;;;;;;14.10;5.28;;;;;;;23.02;60.36;99283.84;2828542;83;21018;-59
2022/07/26 00:09:58;;;;;;;13.43;6.65;;;;;;;23.02;60.25;99267.02;2833874;83;20995;-60
2022/07/26 00:14:04;;;;;;;15.28;7.58;;;;;;;23.03;60.72;99270.03;2825056;83;20991;-59
2022/07/26 00:18:06;;;;;;;13.18;5.33;;;;;;;23.09;60.36;99272.34;2848525;83;21030;-59
2022/07/26 00:26:28;;;;;;;11.08;7.85;;;;;;;23.11;62.40;99271.06;2851298;83;20990;-60
2022/07/26 00:30:48;;;;;;;11.88;7.12;;;;;;;23.19;62.67;99288.88;2859367;82;21054;-60
2022/07/26 00:34:51;;;;;;;9.98;6.65;;;;;;;23.20;64.11;99279.69;2827217;83;20967;-59
2022/07/26 00:39:11;;;;;;;18.70;5.35;;;;;;;23.18;63.96;99289.11;2848437;82;21050;-60
2022/07/26 00:43:13;;;;;;;10.03;6.45;;;;;;;23.21;63.46;99286.77;2808878;83;20979;-60
2022/07/26 00:47:17;;;;;;;9.78;6.12;;;;;;;23.21;64.64;99278.63;2835047;83;20997;-60
2022/07/26 00:51:20;;;;;;;11.12;5.62;;;;;;;23.26;65.01;99296.92;2768870;83;20988;-59
2022/07/26 00:55:22;;;;;;;8.33;5.72;;;;;;;23.15;63.82;99274.66;2834616;82;21003;-59
2022/07/26 00:59:23;;;;;;;11.83;5.95;;;;;;;23.15;64.56;99262.45;2818850;83;21007;-61
2022/07/26 01:03:25;;;;;;;13.85;6.42;;;;;;;22.81;65.58;99262.98;2796064;84;21020;-59
2022/07/26 01:07:31;;;;;;;11.15;5.75;;;;;;;22.75;66.44;99309.97;2766967;86;20999;-59
2022/07/26 01:11:34;;;;;;;12.47;6.78;;;;;;;22.68;67.95;99314.13;2773272;84;21074;-59
2022/07/26 01:15:36;;;;;;;9.93;6.40;;;;;;;22.74;66.47;99306.96;2760916;84;20999;-59
2022/07/26 01:19:38;;;;;;;11.88;6.00;;;;;;;22.70;68.68;99322.04;2829087;83;20967;-59
2022/07/26 01:23:40;;;;;;;11.43;6.53;;;;;;;22.52;69.72;99341.34;2795048;84;21038;-59
2022/07/26 01:27:42;;;;;;;10.78;5.97;;;;;;;22.40;69.01;99324.48;2825480;84;21019;-59
2022/07/26 01:31:44;;;;;;;9.60;7.22;;;;;;;22.28;69.62;99331.70;2830105;83;21054;-59
2022/07/26 01:35:46;;;;;;;9.28;6.25;;;;;;;22.23;69.26;99333.73;2823041;83;21047;-59
2022/07/26 01:39:59;;;;;;;11.22;6.65;;;;;;;22.28;67.29;99340.34;2827898;84;21011;-59
2022/07/26 01:44:01;;;;;;;12.73;6.83;;;;;;;22.34;67.57;99348.39;2834274;82;20995;-59
2022/07/26 01:48:04;;;;;;;20.82;6.90;;;;;;;22.42;68.14;99355.94;2793893;83;21037;-59
2022/07/26 01:52:05;;;;;;;15.20;6.40;;;;;;;22.42;68.79;99383.02;2805859;83;21019;-59
2022/07/26 01:56:07;;;;;;;9.75;7.33;;;;;;;22.62;68.80;99385.52;2777755;84;20999;-59
2022/07/26 02:00:15;;;;;;;17.27;9.03;;;;;;;22.86;70.04;99386.98;2818759;83;20983;-59
2022/07/26 02:08:37;;;;;;;11.10;8.33;;;;;;;23.15;73.40;99408.38;2812793;84;21007;-59
2022/07/26 02:12:39;;;;;;;16.65;10.32;;;;;;;23.20;74.54;99411.24;2828953;84;21019;-59
2022/07/26 02:16:40;;;;;;;12.73;8.68;;;;;;;23.16;75.78;99426.30;2800272;84;20983;-59
2022/07/26 02:20:42;;;;;;;11.80;9.58;;;;;;;23.06;77.16;99432.27;2794385;83;21037;-59
2022/07/26 02:24:43;;;;;;;17.32;10.40;;;;;;;23.04;78.54;99423.55;2811639;84;21018;-59
2022/07/26 02:28:44;;;;;;;14.23;9.68;;;;;;;23.03;79.54;99428.67;2783742;83;20983;-60
2022/07/26 02:32:46;;;;;;;11.80;9.55;;;;;;;22.87;81.50;99442.34;2813175;83;21042;-60
2022/07/26 02:36:48;;;;;;;15.13;10.88;;;;;;;22.77;82.83;99459.66;2828491;83;21007;-60
2022/07/26 02:40:51;;;;;;;17.52;12.05;;;;;;;22.69;84.49;99464.84;2828734;83;21019;-60
2022/07/26 02:44:52;;;;;;;14.10;10.45;;;;;;;22.62;85.99;99473.59;2791916;83;21038;-60
2022/07/26 02:48:55;;;;;;;13.48;10.58;;;;;;;22.52;87.67;99478.18;2824385;83;21035;-60
2022/07/26 02:52:57;;;;;;;10.95;9.88;;;;;;;22.49;88.11;99484.86;2832202;82;20958;-60
2022/07/26 02:56:59;;;;;;;12.47;10.32;;;;;;;22.46;88.94;99489.34;2814226;82;21003;-60
2022/07/26 03:01:00;;;;;;;35.85;12.98;;;;;;;22.38;89.91;99496.42;2819538;84;21011;-59
2022/07/26 03:05:08;;;;;;;12.30;9.38;;;;;;;22.34;90.52;99502.80;2780215;84;21600;-59
2022/07/26 03:09:09;;;;;;;10.78;9.68;;;;;;;22.18;91.83;99520.97;2795864;83;20971;-59
2022/07/26 03:13:19;;;;;;;9.35;7.83;;;;;;;22.15;92.38;99531.73;2793987;84;20983;-59
2022/07/26 03:17:21;;;;;;;10.20;7.67;;;;;;;22.14;92.48;99542.78;2792165;83;21030;-58
2022/07/26 03:21:23;;;;;;;10.15;8.05;;;;;;;22.09;92.86;99552.39;2820867;83;21011;-58
2022/07/26 03:25:24;;;;;;;7.97;7.17;;;;;;;21.96;93.58;99568.73;2807527;83;20998;-58
2022/07/26 03:29:26;;;;;;;17.02;8.80;;;;;;;21.97;93.28;99569.03;2806599;84;21043;-58
2022/07/26 03:33:29;;;;;;;10.98;8.68;;;;;;;22.00;92.26;99565.07;2818794;82;21027;-57
2022/07/26 03:37:30;;;;;;;7.97;7.20;;;;;;;22.10;90.88;99568.95;2822109;83;21060;-58
2022/07/26 03:41:32;;;;;;;6.90;6.20;;;;;;;22.07;90.28;99583.44;2784140;84;21062;-58
2022/07/26 03:45:33;;;;;;;7.67;6.08;;;;;;;22.06;88.55;99593.97;2789090;84;20952;-58
2022/07/26 03:49:35;;;;;;;16.48;7.03;;;;;;;22.05;88.43;99608.05;2793627;83;21043;-58
2022/07/26 03:53:43;;;;;;;9.18;6.37;;;;;;;;;;2819339;83;21141;-57
2022/07/26 03:57:44;;;;;;;6.12;5.17;;;;;;;22.14;87.38;99630.28;2821281;83;21035;-58
2022/07/26 04:01:48;;;;;;;5.25;4.58;;;;;;;22.13;86.08;99631.84;2803317;83;21112;-58
2022/07/26 04:05:49;;;;;;;19.82;8.48;;;;;;;22.11;85.37;99634.79;2784099;83;21090;-58
2022/07/26 04:10:08;;;;;;;9.23;5.50;;;;;;;;;;2818561;83;20968;-58
2022/07/26 04:14:24;;;;;;;5.62;4.20;;;;;;;22.09;84.60;99643.12;2778861;83;21050;-57
2022/07/26 04:18:25;;;;;;;16.42;5.53;;;;;;;22.02;83.71;99654.52;2800430;83;21042;-57
2022/07/26 04:22:26;;;;;;;7.03;4.10;;;;;;;22.04;83.33;99653.78;2792794;83;21050;-57
2022/07/26 04:26:28;;;;;;;4.70;4.20;;;;;;;22.07;83.01;99653.34;2774765;83;21074;-57
2022/07/26 04:30:29;;;;;;;3.45;3.15;;;;;;;21.98;82.86;99661.39;2763723;84;21069;-58
2022/07/26 04:34:41;;;;;;;7.40;3.45;;;;;;;21.92;82.67;99660.91;2790814;85;21018;-61
2022/07/26 04:38:42;;;;;;;3.62;3.25;;;;;;;21.94;82.04;99656.95;2773207;85;21102;-57
2022/07/26 04:42:49;;;;;;;43.83;11.73;;;;;;;22.00;82.12;99670.66;2800263;85;21015;-58
2022/07/26 04:46:50;;;;;;;6.50;4.65;;;;;;;22.00;83.48;99686.38;2757345;85;21036;-58
2022/07/26 04:50:52;;;;;;;6.20;4.58;;;;;;;22.07;83.79;99692.61;2762676;84;21069;-58
2022/07/26 04:54:54;;;;;;;4.45;4.05;;;;;;;22.06;84.01;99694.16;2763631;85;21074;-58
2022/07/26 04:59:04;;;;;;;5.53;3.25;;;;;;;21.94;83.72;99700.78;2765080;83;21040;-58
2022/07/26 05:03:06;;;;;;;15.90;4.90;;;;;;;21.97;83.62;99697.64;2769146;84;21075;-58
2022/07/26 05:07:08;;;;;;;5.37;3.90;;;;;;;21.81;84.20;99710.64;2815742;83;21023;-58
2022/07/26 05:11:10;;;;;;;9.30;4.15;;;;;;;21.81;84.12;99715.21;2808085;83;20968;-58
2022/07/26 05:15:12;;;;;;;7.00;4.25;;;;;;;21.78;84.59;99716.45;2830890;82;21054;-58
2022/07/26 05:19:14;;;;;;;5.72;4.10;;;;;;;21.80;84.00;99733.31;2818769;84;20944;-58
2022/07/26 05:23:18;;;;;;;11.95;6.30;;;;;;;21.85;83.46;99736.73;2828124;83;20936;-58
2022/07/26 05:27:19;;;;;;;5.05;4.55;;;;;;;21.92;83.31;99734.02;2816793;83;20951;-58
2022/07/26 05:31:21;;;;;;;18.85;5.15;;;;;;;21.94;83.36;99734.63;2803039;83;21003;-57
2022/07/26 05:35:22;;;;;;;8.35;5.12;;;;;;;21.99;83.43;99736.16;2829366;84;21241;-58
2022/07/26 05:39:24;;;;;;;5.97;4.17;;;;;;;22.02;83.67;99744.39;2830228;84;21058;-57
2022/07/26 05:43:26;;;;;;;4.97;4.12;;;;;;;22.01;82.85;99750.34;2818326;83;20987;-58
2022/07/26 05:47:27;;;;;;;4.28;3.77;;;;;;;21.95;82.63;99754.73;2806412;83;21034;-58
2022/07/26 05:51:29;;;;;;;6.40;3.67;;;;;;;21.97;82.54;99762.63;2830375;83;21065;-58
2022/07/26 05:55:31;;;;;;;4.70;4.20;;;;;;;22.02;81.22;99752.00;2805006;84;21043;-58
2022/07/26 05:59:33;;;;;;;3.92;3.45;;;;;;;22.03;80.33;99763.14;2859734;82;68459;-87
2022/07/26 06:03:34;;;;;;;4.80;3.87;;;;;;;22.10;80.35;99767.15;2853113;81;21023;-88
2022/07/26 06:07:36;;;;;;;8.23;4.65;;;;;;;22.06;80.35;99763.22;2847765;80;21314;-86
2022/07/26 06:11:37;;;;;;;6.12;5.10;;;;;;;22.09;80.31;99761.42;2847019;80;21047;-88
2022/07/26 06:15:39;;;;;;;5.40;4.15;;;;;;;22.25;79.78;99773.67;2862430;81;20988;-87
2022/07/26 06:19:40;;;;;;;13.15;5.10;;;;;;;22.27;78.87;99774.28;2800256;81;21051;-87
2022/07/26 06:23:41;;;;;;;7.00;4.33;;;;;;;22.25;78.58;99771.78;2803937;81;21002;-87
2022/07/26 06:27:43;;;;;;;5.97;4.83;;;;;;;22.24;77.64;99786.91;2845331;80;21003;-87
2022/07/26 06:31:44;;;;;;;44.08;12.43;;;;;;;22.26;77.29;99788.34;2855347;82;21054;-87
2022/07/26 06:35:45;;;;;;;4.47;2.80;;;;;;;22.35;76.53;99782.14;2864796;81;21031;-87
2022/07/26 06:39:47;;;;;;;10.88;4.42;;;;;;;22.39;75.90;99786.08;2843724;81;21023;-87
2022/07/26 06:43:48;;;;;;;6.97;3.10;;;;;;;22.52;75.72;99786.59;2859005;82;21067;-87
2022/07/26 06:47:50;;;;;;;42.73;11.22;;;;;;;22.68;74.58;99782.52;2856929;82;23348;-87
2022/07/26 06:51:52;;;;;;;5.47;3.35;;;;;;;22.77;74.26;99796.66;2868002;81;20999;-87
2022/07/26 06:55:53;;;;;;;5.15;3.52;;;;;;;22.82;73.54;99800.88;2873018;82;20999;-87
2022/07/26 06:59:55;;;;;;;3.77;3.42;;;;;;;22.91;73.73;99802.81;2851479;81;21349;-86
2022/07/26 07:03:56;;;;;;;4.28;3.17;;;;;;;22.86;73.78;99814.00;2847754;82;21301;-87
2022/07/26 07:07:57;;;;;;;7.30;3.33;;;;;;;22.92;73.53;99815.31;2844635;82;21019;-88
2022/07/26 07:12:00;;;;;;;4.70;3.40;;;;;;;23.03;72.74;99825.17;2861963;82;21023;-87
2022/07/26 07:16:01;;;;;;;6.83;3.33;;;;;;;23.08;72.74;99836.18;2845015;81;21020;-87
2022/07/26 07:20:04;;;;;;;6.53;3.80;;;;;;;23.17;72.00;99836.20;2848150;82;21035;-88
2022/07/26 07:24:06;;;;;;;4.67;3.37;;;;;;;23.24;71.75;99831.58;2865259;82;21050;-87
2022/07/26 07:28:08;;;;;;;5.65;2.67;;;;;;;23.27;71.13;99839.00;2850398;82;21031;-87
2022/07/26 07:32:10;;;;;;;4.47;3.08;;;;;;;23.46;70.81;99828.50;2852661;82;21010;-87
2022/07/26 07:36:11;;;;;;;6.47;3.70;;;;;;;23.50;68.94;99828.89;2835366;79;20981;-85
2022/07/26 07:40:13;;;;;;;22.80;5.55;;;;;;;23.53;69.61;99842.83;2866946;82;21015;-87
2022/07/26 07:44:15;;;;;;;8.05;2.77;;;;;;;23.38;68.01;99839.11;2855600;81;21059;-87
2022/07/26 07:48:17;;;;;;;6.50;3.20;;;;;;;23.46;67.50;99836.64;2844211;82;21006;-87
2022/07/26 07:52:18;;;;;;;5.12;2.42;;;;;;;23.53;67.55;99846.91;2870187;81;21030;-87
2022/07/26 07:56:20;;;;;;;4.80;2.52;;;;;;;23.63;66.41;99849.11;2852451;81;21042;-87
2022/07/26 08:00:21;;;;;;;2.25;2.05;;;;;;;23.91;65.65;99853.76;2839594;82;20987;-88
2022/07/26 08:04:22;;;;;;;2.08;1.70;;;;;;;24.02;63.66;99859.84;2852546;81;20976;-88
2022/07/26 08:08:23;;;;;;;3.95;3.10;;;;;;;24.27;63.41;99853.50;2810151;82;20991;-88
2022/07/26 08:12:25;;;;;;;2.58;2.37;;;;;;;24.38;63.55;99851.39;2850799;82;21527;-87
2022/07/26 08:16:26;;;;;;;7.58;3.27;;;;;;;24.59;63.05;99843.81;2844905;82;21034;-87
2022/07/26 08:20:28;;;;;;;12.53;3.87;;;;;;;24.82;61.73;99853.14;2845846;81;21429;-88
2022/07/26 08:24:29;;;;;;;3.72;1.95;;;;;;;25.21;61.63;99850.05;2858329;81;21061;-87
2022/07/26 08:28:30;;;;;;;6.53;2.35;;;;;;;25.57;59.66;99855.59;2861835;82;21008;-88
2022/07/26 08:32:31;;;;;;;3.90;1.95;;;;;;;25.64;59.99;99860.38;2850692;82;21014;-87
2022/07/26 08:36:33;;;;;;;7.40;1.87;;;;;;;25.60;60.92;99860.00;2860848;82;21056;-87
2022/07/26 08:40:34;;;;;;;3.17;1.62;;;;;;;25.50;57.53;99867.95;2860581;82;21015;-87
2022/07/26 08:44:35;;;;;;;3.25;2.25;;;;;;;25.56;57.19;99866.99;2861861;82;21086;-87
2022/07/26 08:48:38;;;;;;;3.40;2.45;;;;;;;25.60;58.05;99861.91;2847948;81;21022;-88
2022/07/26 08:52:40;;;;;;;4.85;2.20;;;;;;;25.68;58.18;99861.55;2851641;81;21645;-88
2022/07/26 08:56:50;;;;;;;5.17;2.60;;;;;;;25.57;58.71;99861.03;2841252;82;21098;-87
2022/07/26 09:01:07;;;;;;;8.03;3.75;;;;;;;25.56;59.23;99867.55;2843741;82;21063;-87
2022/07/26 09:05:10;;;;;;;3.10;2.55;;;;;;;25.61;59.48;99867.11;2861704;82;20991;-87
2022/07/26 09:09:11;;;;;;;7.80;3.62;;;;;;;25.69;59.56;99872.73;2845549;82;21039;-86
2022/07/26 09:13:15;;;;;;;2.55;2.08;;;;;;;25.53;59.08;99870.19;2857611;82;21031;-87
2022/07/26 09:17:20;;;;;;;2.75;2.00;;;;;;;25.66;58.52;99874.58;2859625;82;21038;-87
2022/07/26 09:21:37;;;;;;;4.53;2.27;;;;;;;25.56;58.66;99871.63;2851365;82;21074;-88
2022/07/26 09:25:42;;;;;;;2.55;1.87;;;;;;;25.48;58.30;99861.36;2852760;82;21472;-87
2022/07/26 09:29:49;;;;;;;2.75;2.15;;;;;;;25.58;58.72;99879.02;2847186;81;20980;-87
2022/07/26 09:33:51;;;;;;;3.10;1.45;;;;;;;25.50;56.75;99879.65;2856864;82;21770;-87
2022/07/26 09:37:52;;;;;;;3.80;2.67;;;;;;;25.37;56.17;99876.59;2847291;82;21050;-86
2022/07/26 09:41:53;;;;;;;3.20;1.77;;;;;;;25.30;57.50;99874.52;2864935;82;20999;-87
2022/07/26 09:46:04;;;;;;;2.77;1.42;;;;;;;25.30;57.83;99874.52;2849924;82;21043;-88
2022/07/26 09:50:16;;;;;;;4.42;1.62;;;;;;;25.54;57.40;99880.02;2848182;82;21003;-87
2022/07/26 09:54:30;;;;;;;6.00;2.52;;;;;;;25.53;55.49;99879.72;2861396;82;21070;-87
2022/07/26 09:58:33;;;;;;;4.15;1.85;;;;;;;25.58;56.00;99874.39;2840177;82;21293;-88
2022/07/26 10:02:34;;;;;;;2.83;2.20;;;;;;;25.56;56.15;99866.18;2852256;82;21027;-87
2022/07/26 10:06:36;;;;;;;7.12;2.12;;;;;;;25.57;56.35;99871.37;2858456;82;21020;-87
2022/07/26 10:10:48;;;;;;;3.50;2.20;;;;;;;25.67;56.80;99876.23;2800248;82;21526;-88
2022/07/26 10:14:50;;;;;;;6.40;2.40;;;;;;;25.78;56.96;99868.61;2844565;82;21023;-87
2022/07/26 10:18:51;;;;;;;3.40;2.25;;;;;;;25.93;56.78;99860.47;2871447;82;21011;-88
2022/07/26 10:22:53;;;;;;;2.95;1.85;;;;;;;25.91;56.71;99866.69;2863765;82;21012;-87
2022/07/26 10:26:54;;;;;;;6.58;1.98;;;;;;;26.00;57.25;99866.64;2849380;82;21019;-87
2022/07/26 10:31:25;;;;;;;3.80;2.50;;;;;;;26.10;57.13;99872.84;2870954;81;21000;-88
2022/07/26 10:35:42;;;;;;;6.33;2.25;;;;;;;26.16;56.61;99879.24;2770426;84;21573;-87
2022/07/26 10:39:43;;;;;;;5.62;2.33;;;;;;;26.31;56.68;99874.67;2744821;84;21027;-87
2022/07/26 10:44:05;;;;;;;4.45;2.62;;;;;;;26.48;56.30;99872.01;2749888;85;21082;-87
2022/07/26 10:48:21;;;;;;;6.70;2.77;;;;;;;26.51;55.83;99876.97;2731985;85;21137;-86
2022/07/26 10:52:31;;;;;;;2.98;2.67;;;;;;;26.50;56.32;99887.59;2739652;85;21091;-87
2022/07/26 10:56:32;;;;;;;5.35;2.92;;;;;;;26.70;56.25;99874.91;2737724;85;21086;-87
2022/07/26 11:00:34;;;;;;;5.28;2.17;;;;;;;26.99;55.34;99869.45;2736938;85;21067;-86
2022/07/26 11:04:36;;;;;;;2.95;1.52;;;;;;;27.19;53.98;99871.73;2740009;86;21115;-87
2022/07/26 11:08:38;;;;;;;4.65;2.70;;;;;;;27.27;52.97;99869.13;2735101;86;21102;-87
2022/07/26 11:12:40;;;;;;;3.70;2.42;;;;;;;27.26;52.31;99870.73;2777415;85;21186;-87
2022/07/26 11:16:49;;;;;;;2.47;2.12;;;;;;;27.45;52.09;99870.78;2790796;83;21023;-87
2022/07/26 11:20:54;;;;;;;4.75;2.40;;;;;;;27.38;52.55;99874.22;2766652;85;21026;-86
2022/07/26 11:24:56;;;;;;;4.37;2.72;;;;;;;27.40;52.13;99872.07;2877325;82;21065;-87
2022/07/26 11:29:02;;;;;;;6.53;2.87;;;;;;;27.59;51.82;99873.22;2879463;80;21027;-87
2022/07/26 11:33:03;;;;;;;9.75;3.05;;;;;;;27.61;51.96;99869.69;2894063;80;20987;-87
2022/07/26 11:37:05;;;;;;;6.72;2.25;;;;;;;27.68;51.33;99867.60;2808575;80;20972;-87
2022/07/26 11:41:07;;;;;;;3.52;2.08;;;;;;;27.55;51.43;99873.43;2845260;82;20997;-88
2022/07/26 11:45:10;;;;;;;3.30;2.15;;;;;;;27.38;51.75;99864.67;2884282;80;21150;-87
2022/07/26 11:49:18;;;;;;;4.08;2.15;;;;;;;27.12;52.11;99866.98;2836667;80;21043;-84
2022/07/26 11:53:21;;;;;;;7.35;2.33;;;;;;;26.87;52.49;99862.70;2894650;82;21030;-86
2022/07/26 11:57:29;;;;;;;10.58;2.70;;;;;;;26.64;53.39;99869.88;2885486;82;21007;-88
2022/07/26 12:01:30;;;;;;;6.12;2.85;;;;;;;26.63;53.37;99866.86;2873452;81;21024;-88
2022/07/26 12:05:32;;;;;;;3.02;2.20;;;;;;;26.57;53.81;99871.09;2851160;82;21039;-86
2022/07/26 12:09:40;;;;;;;5.45;2.83;;;;;;;26.43;53.76;99870.55;2873517;82;20972;-87
2022/07/26 12:14:00;;;;;;;5.72;2.60;;;;;;;26.31;54.52;99874.13;2826610;82;21031;-88
2022/07/26 12:18:01;;;;;;;6.28;3.50;;;;;;;26.06;55.01;99879.30;2863680;82;20979;-88
2022/07/26 12:22:15;;;;;;;3.30;2.30;;;;;;;25.87;55.94;99876.41;2844626;82;20956;-87
2022/07/26 12:26:29;;;;;;;8.00;3.17;;;;;;;25.68;56.93;99879.25;2837930;81;21470;-87
2022/07/26 12:30:36;;;;;;;7.28;3.33;;;;;;;25.46;58.60;99870.81;2855926;81;21003;-88
2022/07/26 12:34:39;;;;;;;7.20;3.37;;;;;;;25.30;59.45;99868.22;2865356;82;21054;-87
2022/07/26 12:38:42;;;;;;;14.83;3.77;;;;;;;25.11;60.39;99866.94;2853811;82;21066;-86
2022/07/26 12:42:52;;;;;;;3.50;3.10;;;;;;;25.14;60.14;99874.63;2853007;81;21055;-87
2022/07/26 12:46:53;;;;;;;6.67;3.20;;;;;;;25.38;60.60;99871.44;2844093;82;20988;-87
2022/07/26 12:50:57;;;;;;;6.22;3.80;;;;;;;25.65;58.22;99874.28;2848778;82;21097;-87
2022/07/26 12:54:59;;;;;;;1.92;1.70;;;;;;;25.94;57.83;99873.86;2859722;82;21037;-87
2022/07/26 12:59:01;;;;;;;3.60;2.80;;;;;;;26.09;55.57;99867.91;2872100;82;20995;-86
2022/07/26 13:03:02;;;;;;;2.67;1.98;;;;;;;26.38;55.27;99866.66;2771614;81;21019;-88
2022/07/26 13:07:04;;;;;;;7.65;3.22;;;;;;;26.70;52.59;99859.91;2843515;82;21032;-87
2022/07/26 13:11:06;;;;;;;3.58;2.95;;;;;;;27.12;50.97;99858.79;2858622;82;21030;-87
2022/07/26 13:15:09;;;;;;;2.83;2.15;;;;;;;27.43;49.27;99851.09;2847835;81;21043;-86
2022/07/26 13:19:10;;;;;;;12.18;2.62;;;;;;;27.79;47.93;99857.66;2841374;82;21039;-88
2022/07/26 13:23:14;;;;;;;6.00;2.35;;;;;;;28.12;46.04;99844.18;2863455;79;21055;-87
2022/07/26 13:27:15;;;;;;;2.52;2.30;;;;;;;28.12;46.04;99844.18;2847130;82;21019;-85
2022/07/26 13:31:17;;;;;;;5.75;2.00;;;;;;;28.35;46.80;99853.52;2843530;82;21043;-88
2022/07/26 13:35:19;;;;;;;11.15;2.77;;;;;;;28.47;46.29;99847.07;2848300;82;21000;-89
2022/07/26 13:39:20;;;;;;;5.50;3.05;;;;;;;28.36;46.81;99849.70;2860230;82;21050;-88
2022/07/26 13:43:22;;;;;;;5.55;2.35;;;;;;;28.22;48.11;99848.42;2847410;82;21082;-85
2022/07/26 13:47:23;;;;;;;4.03;1.90;;;;;;;28.35;47.73;99858.15;2837814;81;21277;-89
2022/07/26 13:51:55;;;;;;;7.65;3.08;;;;;;;28.42;47.27;99845.66;2864137;81;20972;-87
2022/07/26 13:55:29;;;;;;;3.27;1.95;;;;;;;28.35;48.02;99842.58;2852697;82;21494;-88
2022/07/26 13:59:30;;;;;;;6.62;2.92;;;;;;;28.35;47.78;99844.47;2848483;81;21565;-83
2022/07/26 14:03:32;;;;;;;7.92;2.67;;;;;;;28.54;46.99;99845.52;2858979;81;21007;-93
2022/07/26 14:07:34;;;;;;;16.90;4.30;;;;;;;28.58;45.80;99848.85;2848287;82;21034;-88
2022/07/26 14:11:37;;;;;;;8.50;4.00;;;;;;;28.28;45.29;99836.46;2871020;82;21070;-88
2022/07/26 14:15:38;;;;;;;7.87;3.08;;;;;;;27.96;46.46;99844.50;2858957;81;20984;-88
2022/07/26 14:19:39;;;;;;;2.37;2.17;;;;;;;27.85;46.86;99848.47;2826625;83;21022;-88
2022/07/26 14:23:40;;;;;;;5.72;2.37;;;;;;;27.68;47.01;99836.19;2796703;82;21106;-87
2022/07/26 14:27:42;;;;;;;3.20;2.90;;;;;;;27.54;46.41;99844.47;2863707;82;21067;-93
2022/07/26 14:31:43;;;;;;;4.85;2.42;;;;;;;27.54;46.83;99842.55;2855345;82;21696;-88
2022/07/26 14:35:45;;;;;;;5.33;2.60;;;;;;;27.90;46.21;99834.03;2836459;82;20996;-88
2022/07/26 14:39:47;;;;;;;6.35;3.67;;;;;;;27.90;46.21;99834.03;2868920;81;20964;-84
2022/07/26 14:43:52;;;;;;;7.50;2.83;;;;;;;27.96;46.67;99819.38;2857872;81;21542;-87
2022/07/26 14:47:58;;;;;;;3.52;2.58;;;;;;;28.39;46.15;99843.44;2820796;82;21574;-87
2022/07/26 14:52:01;;;;;;;4.53;2.37;;;;;;;28.70;44.88;99812.31;2828395;82;21031;-88
2022/07/26 14:56:03;;;;;;;7.10;2.80;;;;;;;28.70;44.88;99812.31;2851785;82;21011;-86
2022/07/26 15:00:09;;;;;;;24.82;7.45;;;;;;;28.76;44.76;99835.91;2846151;82;20968;-87
2022/07/26 15:04:10;;;;;;;6.28;2.80;;;;;;;28.48;46.17;99838.63;2763415;84;21026;-86
2022/07/26 15:08:12;;;;;;;9.55;2.83;;;;;;;28.53;47.15;99831.02;2776823;85;21047;-85
2022/07/26 15:12:14;;;;;;;3.87;2.55;;;;;;;28.56;47.11;99825.03;2799558;84;20995;-86
2022/07/26 15:16:15;;;;;;;2.75;1.90;;;;;;;28.79;46.85;99818.96;2823742;81;21103;-86
2022/07/26 15:20:17;;;;;;;3.55;2.37;;;;;;;28.88;46.01;99816.05;2851093;82;21019;-87
2022/07/26 15:24:19;;;;;;;2.42;1.90;;;;;;;28.89;43.97;99813.63;2846203;82;20991;-88
2022/07/26 15:28:21;;;;;;;5.12;1.72;;;;;;;28.99;44.51;99816.16;2859460;82;21046;-89
2022/07/26 15:32:22;;;;;;;5.95;2.33;;;;;;;29.00;44.32;99808.23;2856926;82;21039;-88
2022/07/26 15:36:24;;;;;;;3.40;2.05;;;;;;;29.07;43.13;99803.35;2854608;82;21059;-88
2022/07/26 15:40:25;;;;;;;2.60;2.40;;;;;;;29.18;42.88;99810.58;2850260;82;21626;-88
2022/07/26 15:44:27;;;;;;;6.30;1.90;;;;;;;29.13;42.72;99810.54;2865996;82;21436;-88
2022/07/26 15:48:29;;;;;;;4.40;1.60;;;;;;;29.14;42.88;99802.61;2838349;82;21003;-87
2022/07/26 15:52:32;;;;;;;1.70;1.45;;;;;;;29.29;43.05;99806.00;2857280;82;21003;-88
2022/07/26 15:56:34;;;;;;;5.40;2.27;;;;;;;28.88;42.39;99818.80;2840062;82;21011;-86
2022/07/26 16:00:35;;;;;;;3.95;1.87;;;;;;;28.40;42.97;99817.73;2845486;82;21026;-85
2022/07/26 16:04:37;;;;;;;3.47;1.95;;;;;;;28.04;43.35;99820.28;2890989;81;21525;-86
2022/07/26 16:08:38;;;;;;;2.58;1.90;;;;;;;27.96;43.79;99822.62;2879663;81;21592;-87
2022/07/26 16:12:41;;;;;;;2.92;2.05;;;;;;;27.53;44.00;99803.21;2866902;82;21006;-87
2022/07/26 16:16:44;;;;;;;27.93;5.33;;;;;;;27.53;44.00;99803.21;2879057;81;21042;-86
2022/07/26 16:20:45;;;;;;;4.70;1.87;;;;;;;27.51;44.71;99825.27;2892370;81;20982;-86
2022/07/26 16:24:47;;;;;;;3.52;1.98;;;;;;;27.46;44.73;99823.28;2883645;81;21574;-86
2022/07/26 16:28:49;;;;;;;1.82;1.72;;;;;;;27.32;45.23;99810.51;2884005;81;20999;-88
2022/07/26 16:32:50;;;;;;;2.35;1.87;;;;;;;27.37;44.63;99822.05;2833775;82;21022;-89
2022/07/26 16:36:52;;;;;;;3.52;1.70;;;;;;;27.26;44.29;99833.36;2868350;82;21042;-87
2022/07/26 16:40:53;;;;;;;3.37;2.25;;;;;;;27.26;44.29;99833.36;2841806;82;21026;-85
2022/07/26 16:44:55;;;;;;;5.42;2.62;;;;;;;27.18;44.73;99831.86;2880521;80;20991;-86
2022/07/26 16:48:56;;;;;;;3.33;1.80;;;;;;;27.00;45.00;99821.17;2881503;81;21036;-82
2022/07/26 16:52:58;;;;;;;3.75;2.20;;;;;;;27.03;45.14;99842.52;2875496;80;21062;-85
2022/07/26 16:57:00;;;;;;;4.42;1.75;;;;;;;26.87;45.82;99839.50;2872459;82;21002;-83
2022/07/26 17:01:02;;;;;;;5.17;1.85;;;;;;;26.87;45.82;99839.50;2824730;82;21022;-84
2022/07/26 17:05:06;;;;;;;4.70;2.27;;;;;;;26.85;46.16;99836.72;2859469;82;21003;-83
2022/07/26 17:09:07;;;;;;;2.93;1.87;;;;;;;26.86;46.56;99844.67;2868510;81;21026;-83
2022/07/26 17:13:09;;;;;;;7.55;2.22;;;;;;;26.76;47.34;99838.45;2852909;81;20999;-85
2022/07/26 17:17:11;;;;;;;1.57;1.20;;;;;;;26.77;48.04;99844.20;2863945;81;20951;-85
2022/07/26 17:21:12;;;;;;;3.22;2.47;;;;;;;26.72;48.46;99853.66;2873174;82;20975;-85
2022/07/26 17:25:14;;;;;;;7.95;2.50;;;;;;;26.68;48.65;99851.14;2880450;82;21546;-84
2022/07/26 17:29:15;;;;;;;5.45;2.05;;;;;;;26.73;48.58;99854.51;2865266;82;21011;-85
2022/07/26 17:33:17;;;;;;;1.92;1.07;;;;;;;26.78;49.03;99848.59;2852557;82;21019;-85
2022/07/26 17:37:20;;;;;;;3.65;1.35;;;;;;;26.80;49.14;99855.17;2867409;80;21022;-85
2022/07/26 17:41:22;;;;;;;3.20;2.17;;;;;;;26.89;49.17;99859.18;2857853;81;20962;-85
2022/07/26 17:45:25;;;;;;;8.35;2.02;;;;;;;26.77;48.96;99851.58;2858149;81;21036;-85
2022/07/26 17:49:26;;;;;;;8.00;1.87;;;;;;;26.67;49.22;99864.48;2853015;81;21098;-90
2022/07/26 17:53:32;;;;;;;7.42;1.65;;;;;;;26.58;49.27;99870.86;2856999;82;21451;-92
2022/07/26 17:57:33;;;;;;;4.22;1.72;;;;;;;26.36;49.87;99865.23;2835133;82;21011;-88
2022/07/26 18:01:35;;;;;;;4.05;1.37;;;;;;;26.30;50.21;99874.38;2858313;82;21109;-89
2022/07/26 18:05:36;;;;;;;1.62;1.05;;;;;;;26.19;50.58;99882.88;2830033;82;20984;-92
2022/07/26 18:09:38;;;;;;;1.32;1.05;;;;;;;26.12;50.81;99883.48;2845932;82;21094;-91
2022/07/26 18:13:40;;;;;;;7.72;1.45;;;;;;;25.99;50.89;99888.66;2832065;82;21356;-88
2022/07/26 18:17:42;;;;;;;1.17;1.02;;;;;;;25.80;51.41;99886.91;2825347;82;20991;-92
2022/07/26 18:21:44;;;;;;;2.25;1.40;;;;;;;25.65;51.69;99889.26;2840880;82;21075;-90
2022/07/26 18:25:45;;;;;;;5.10;1.80;;;;;;;25.44;52.21;99890.09;2849309;81;21518;-85
2022/07/26 18:29:47;;;;;;;6.17;2.35;;;;;;;24.97;54.90;99907.13;2868513;81;21480;-91
2022/07/26 18:33:49;;;;;;;2.77;1.45;;;;;;;24.71;57.38;99930.02;2830871;82;21062;-93
2022/07/26 18:37:51;;;;;;;5.53;1.37;;;;;;;24.42;58.76;99940.63;2873743;81;21021;-88
2022/07/26 18:41:53;;;;;;;3.02;2.00;;;;;;;24.20;60.09;99938.34;2821744;82;21511;-89
2022/07/26 18:45:55;;;;;;;17.92;1.55;;;;;;;23.99;60.23;99943.62;2795771;82;21075;-91
2022/07/26 18:49:56;;;;;;;5.03;1.85;;;;;;;23.91;61.39;99944.23;2853382;81;21062;-89
2022/07/26 18:53:58;;;;;;;2.15;1.30;;;;;;;23.80;61.95;99950.38;2851443;81;21361;-85
2022/07/26 18:58:00;;;;;;;8.45;2.27;;;;;;;23.68;62.14;99957.05;2901597;80;21039;-88
2022/07/26 19:02:01;;;;;;;1.45;1.35;;;;;;;23.57;62.58;99960.46;2867903;80;21569;-90
2022/07/26 19:06:04;;;;;;;10.32;1.67;;;;;;;23.45;61.86;99967.12;2885559;80;21401;-91
2022/07/26 19:10:08;;;;;;;4.03;1.95;;;;;;;23.33;62.24;99966.48;2873238;82;21057;-91